sensor_id;sensor_type;location;lat;lon;timestamp;pressure;altitude;pressure_sealevel;temperature;humidity
73858;BME280;62195;55.030;73.278;2022-10-16T00:01:29;100774.91;;;9.50;72.60
73858;BME280;62195;55.030;73.278;2022-10-16T00:03:57;100767.88;;;9.50;73.08
73858;BME280;62195;55.030;73.278;2022-10-16T00:06:25;100781.00;;;9.50;72.88
73858;BME280;62195;55.030;73.278;2022-10-16T00:08:51;100781.97;;;9.48;72.60
73858;BME280;62195;55.030;73.278;2022-10-16T00:11:20;100775.00;;;9.47;71.62
73858;BME280;62195;55.030;73.278;2022-10-16T00:13:47;100762.22;;;9.38;71.92
73858;BME280;62195;55.030;73.278;2022-10-16T00:16:15;100765.69;;;9.38;71.99
73858;BME280;62195;55.030;73.278;2022-10-16T00:18:42;100764.94;;;9.34;71.97
73858;BME280;62195;55.030;73.278;2022-10-16T00:21:20;100766.84;;;9.29;72.46
73858;BME280;62195;55.030;73.278;2022-10-16T00:23:50;100769.81;;;9.18;73.86
73858;BME280;62195;55.030;73.278;2022-10-16T00:26:18;100764.78;;;9.12;73.51
73858;BME280;62195;55.030;73.278;2022-10-16T00:28:46;100759.06;;;8.99;73.74
73858;BME280;62195;55.030;73.278;2022-10-16T00:31:13;100762.88;;;8.89;74.31
73858;BME280;62195;55.030;73.278;2022-10-16T00:33:40;100775.00;;;8.93;74.71
73858;BME280;62195;55.030;73.278;2022-10-16T00:36:09;100771.53;;;8.91;75.04
73858;BME280;62195;55.030;73.278;2022-10-16T00:38:35;100769.94;;;8.87;74.51
73858;BME280;62195;55.030;73.278;2022-10-16T00:41:04;100767.44;;;8.82;75.05
73858;BME280;62195;55.030;73.278;2022-10-16T00:43:42;100757.22;;;8.74;75.91
73858;BME280;62195;55.030;73.278;2022-10-16T00:46:38;100758.22;;;8.70;74.88
73858;BME280;62195;55.030;73.278;2022-10-16T00:49:10;100764.22;;;8.74;75.03
73858;BME280;62195;55.030;73.278;2022-10-16T00:51:43;100753.78;;;8.72;74.63
73858;BME280;62195;55.030;73.278;2022-10-16T00:54:23;100752.28;;;8.65;76.47
73858;BME280;62195;55.030;73.278;2022-10-16T00:56:50;100760.00;;;8.68;75.97
73858;BME280;62195;55.030;73.278;2022-10-16T01:01:43;100748.22;;;8.54;76.78
73858;BME280;62195;55.030;73.278;2022-10-16T01:04:09;100754.41;;;8.52;77.13
73858;BME280;62195;55.030;73.278;2022-10-16T01:09:49;100759.03;;;8.42;76.80
73858;BME280;62195;55.030;73.278;2022-10-16T01:12:45;100758.25;;;8.38;76.88
73858;BME280;62195;55.030;73.278;2022-10-16T01:15:25;100770.50;;;8.36;76.80
73858;BME280;62195;55.030;73.278;2022-10-16T01:18:00;100762.72;;;8.35;77.54
73858;BME280;62195;55.030;73.278;2022-10-16T01:20:54;100770.72;;;8.28;78.09
73858;BME280;62195;55.030;73.278;2022-10-16T01:23:55;100763.06;;;8.22;78.36
73858;BME280;62195;55.030;73.278;2022-10-16T01:29:25;100770.09;;;8.20;78.07
73858;BME280;62195;55.030;73.278;2022-10-16T01:32:00;100764.75;;;8.23;78.07
73858;BME280;62195;55.030;73.278;2022-10-16T01:34:33;100761.19;;;8.26;77.55
73858;BME280;62195;55.030;73.278;2022-10-16T01:37:08;100763.75;;;8.29;77.09
73858;BME280;62195;55.030;73.278;2022-10-16T01:39:38;100755.75;;;8.34;77.20
73858;BME280;62195;55.030;73.278;2022-10-16T01:42:33;100748.81;;;8.33;77.45
73858;BME280;62195;55.030;73.278;2022-10-16T01:45:01;100751.22;;;8.40;77.50
73858;BME280;62195;55.030;73.278;2022-10-16T01:47:30;100756.38;;;8.43;76.60
73858;BME280;62195;55.030;73.278;2022-10-16T01:49:57;100762.25;;;8.50;77.14
73858;BME280;62195;55.030;73.278;2022-10-16T01:52:26;100759.59;;;8.53;77.10
73858;BME280;62195;55.030;73.278;2022-10-16T01:54:56;100748.25;;;8.51;76.29
73858;BME280;62195;55.030;73.278;2022-10-16T01:57:26;100751.75;;;8.53;76.26
73858;BME280;62195;55.030;73.278;2022-10-16T01:59:57;100762.78;;;8.63;76.17
73858;BME280;62195;55.030;73.278;2022-10-16T02:02:26;100735.84;;;8.60;75.22
73858;BME280;62195;55.030;73.278;2022-10-16T02:05:04;100756.41;;;8.72;75.20
73858;BME280;62195;55.030;73.278;2022-10-16T02:07:31;100752.03;;;8.73;74.32
73858;BME280;62195;55.030;73.278;2022-10-16T02:09:57;100751.09;;;8.75;73.97
73858;BME280;62195;55.030;73.278;2022-10-16T02:12:31;100744.94;;;8.76;73.74
73858;BME280;62195;55.030;73.278;2022-10-16T02:15:00;100744.84;;;8.79;73.63
73858;BME280;62195;55.030;73.278;2022-10-16T02:17:26;100750.03;;;8.81;72.98
73858;BME280;62195;55.030;73.278;2022-10-16T02:19:54;100739.59;;;8.79;72.10
73858;BME280;62195;55.030;73.278;2022-10-16T02:25:06;100749.78;;;8.89;71.98
73858;BME280;62195;55.030;73.278;2022-10-16T02:30:29;100751.50;;;8.90;70.98
73858;BME280;62195;55.030;73.278;2022-10-16T02:32:59;100752.13;;;8.98;70.75
73858;BME280;62195;55.030;73.278;2022-10-16T02:35:38;100734.84;;;8.92;70.70
73858;BME280;62195;55.030;73.278;2022-10-16T02:38:05;100748.41;;;9.05;70.49
73858;BME280;62195;55.030;73.278;2022-10-16T02:40:32;100750.03;;;9.09;70.06
73858;BME280;62195;55.030;73.278;2022-10-16T02:42:59;100751.63;;;9.14;69.39
73858;BME280;62195;55.030;73.278;2022-10-16T02:45:25;100737.94;;;9.05;68.56
73858;BME280;62195;55.030;73.278;2022-10-16T02:47:51;100756.69;;;9.20;68.97
73858;BME280;62195;55.030;73.278;2022-10-16T02:50:18;100753.16;;;9.21;68.87
73858;BME280;62195;55.030;73.278;2022-10-16T02:52:44;100742.69;;;9.21;68.11
73858;BME280;62195;55.030;73.278;2022-10-16T02:55:10;100748.63;;;9.26;68.56
73858;BME280;62195;55.030;73.278;2022-10-16T02:57:37;100756.34;;;9.29;68.42
73858;BME280;62195;55.030;73.278;2022-10-16T03:00:04;100742.50;;;9.26;68.19
73858;BME280;62195;55.030;73.278;2022-10-16T03:02:31;100746.78;;;9.28;67.51
73858;BME280;62195;55.030;73.278;2022-10-16T03:04:57;100747.41;;;9.36;67.75
73858;BME280;62195;55.030;73.278;2022-10-16T03:07:24;100740.44;;;9.35;66.61
73858;BME280;62195;55.030;73.278;2022-10-16T03:09:50;100747.34;;;9.38;67.29
73858;BME280;62195;55.030;73.278;2022-10-16T03:12:16;100727.28;;;9.37;66.70
73858;BME280;62195;55.030;73.278;2022-10-16T03:14:42;100740.84;;;9.50;66.02
73858;BME280;62195;55.030;73.278;2022-10-16T03:17:09;100734.72;;;9.49;65.50
73858;BME280;62195;55.030;73.278;2022-10-16T03:19:35;100744.94;;;9.57;66.20
73858;BME280;62195;55.030;73.278;2022-10-16T03:22:02;100738.75;;;9.60;65.25
73858;BME280;62195;55.030;73.278;2022-10-16T03:24:28;100739.63;;;9.60;64.57
73858;BME280;62195;55.030;73.278;2022-10-16T03:27:04;100731.88;;;9.56;65.32
73858;BME280;62195;55.030;73.278;2022-10-16T03:29:31;100723.88;;;9.60;64.97
73858;BME280;62195;55.030;73.278;2022-10-16T03:31:59;100720.44;;;9.58;64.70
73858;BME280;62195;55.030;73.278;2022-10-16T03:34:25;100727.81;;;9.72;64.57
73858;BME280;62195;55.030;73.278;2022-10-16T03:36:52;100710.44;;;9.70;63.83
73858;BME280;62195;55.030;73.278;2022-10-16T03:39:19;100730.09;;;9.83;64.44
73858;BME280;62195;55.030;73.278;2022-10-16T03:41:45;100722.78;;;9.92;63.62
73858;BME280;62195;55.030;73.278;2022-10-16T03:44:14;100715.72;;;9.94;62.87
73858;BME280;62195;55.030;73.278;2022-10-16T03:46:41;100732.72;;;10.07;62.46
73858;BME280;62195;55.030;73.278;2022-10-16T03:49:08;100726.28;;;10.16;63.31
73858;BME280;62195;55.030;73.278;2022-10-16T03:51:35;100725.94;;;10.25;63.37
73858;BME280;62195;55.030;73.278;2022-10-16T03:54:03;100715.22;;;10.32;62.77
73858;BME280;62195;55.030;73.278;2022-10-16T03:56:34;100710.81;;;10.32;62.58
73858;BME280;62195;55.030;73.278;2022-10-16T03:59:11;100721.72;;;10.45;61.88
73858;BME280;62195;55.030;73.278;2022-10-16T04:01:37;100724.28;;;10.47;62.58
73858;BME280;62195;55.030;73.278;2022-10-16T04:04:04;100728.53;;;10.51;62.11
73858;BME280;62195;55.030;73.278;2022-10-16T04:06:30;100713.84;;;10.45;62.09
73858;BME280;62195;55.030;73.278;2022-10-16T04:08:56;100729.25;;;10.54;61.81
73858;BME280;62195;55.030;73.278;2022-10-16T04:11:22;100722.34;;;10.52;60.99
73858;BME280;62195;55.030;73.278;2022-10-16T04:13:49;100710.88;;;10.54;60.76
73858;BME280;62195;55.030;73.278;2022-10-16T04:16:15;100713.94;;;10.66;61.43
73858;BME280;62195;55.030;73.278;2022-10-16T04:18:41;100717.09;;;10.74;61.34
73858;BME280;62195;55.030;73.278;2022-10-16T04:21:08;100703.91;;;10.76;61.29
73858;BME280;62195;55.030;73.278;2022-10-16T04:23:34;100716.94;;;10.79;61.40
73858;BME280;62195;55.030;73.278;2022-10-16T04:26:00;100709.13;;;10.77;62.02
73858;BME280;62195;55.030;73.278;2022-10-16T04:28:27;100706.59;;;10.74;61.41
73858;BME280;62195;55.030;73.278;2022-10-16T04:30:59;100704.84;;;10.75;61.43
73858;BME280;62195;55.030;73.278;2022-10-16T04:33:35;100714.84;;;10.87;61.14
73858;BME280;62195;55.030;73.278;2022-10-16T04:36:03;100697.50;;;10.83;62.33
73858;BME280;62195;55.030;73.278;2022-10-16T04:38:29;100715.16;;;11.02;61.99
73858;BME280;62195;55.030;73.278;2022-10-16T04:40:56;100720.72;;;11.15;61.55
73858;BME280;62195;55.030;73.278;2022-10-16T04:43:23;100714.91;;;11.29;61.30
73858;BME280;62195;55.030;73.278;2022-10-16T04:45:49;100709.25;;;11.38;61.38
73858;BME280;62195;55.030;73.278;2022-10-16T04:48:18;100701.84;;;11.48;60.73
73858;BME280;62195;55.030;73.278;2022-10-16T04:50:54;100702.44;;;11.55;60.37
73858;BME280;62195;55.030;73.278;2022-10-16T04:53:21;100706.38;;;11.65;59.49
73858;BME280;62195;55.030;73.278;2022-10-16T04:55:47;100699.13;;;11.70;59.18
73858;BME280;62195;55.030;73.278;2022-10-16T04:58:14;100706.81;;;11.75;59.07
73858;BME280;62195;55.030;73.278;2022-10-16T05:00:40;100704.13;;;11.76;59.00
73858;BME280;62195;55.030;73.278;2022-10-16T05:03:17;100701.22;;;11.83;59.43
73858;BME280;62195;55.030;73.278;2022-10-16T05:05:44;100703.44;;;11.92;59.07
73858;BME280;62195;55.030;73.278;2022-10-16T05:08:16;100675.41;;;11.91;59.72
73858;BME280;62195;55.030;73.278;2022-10-16T05:10:53;100691.19;;;12.12;58.57
73858;BME280;62195;55.030;73.278;2022-10-16T05:13:20;100700.38;;;12.22;58.15
73858;BME280;62195;55.030;73.278;2022-10-16T05:15:55;100691.19;;;12.31;58.56
73858;BME280;62195;55.030;73.278;2022-10-16T05:18:21;100693.41;;;12.40;58.45
73858;BME280;62195;55.030;73.278;2022-10-16T05:20:48;100696.56;;;12.47;58.02
73858;BME280;62195;55.030;73.278;2022-10-16T05:23:14;100687.91;;;12.45;58.27
73858;BME280;62195;55.030;73.278;2022-10-16T05:25:57;100671.34;;;12.43;58.01
73858;BME280;62195;55.030;73.278;2022-10-16T05:28:25;100694.75;;;12.49;57.90
73858;BME280;62195;55.030;73.278;2022-10-16T05:30:52;100705.28;;;12.49;57.05
73858;BME280;62195;55.030;73.278;2022-10-16T05:33:29;100694.09;;;12.44;56.95
73858;BME280;62195;55.030;73.278;2022-10-16T05:36:20;100674.69;;;12.27;57.64
73858;BME280;62195;55.030;73.278;2022-10-16T05:40:06;100711.47;;;12.48;57.85
73858;BME280;62195;55.030;73.278;2022-10-16T05:42:32;100701.56;;;12.53;57.72
73858;BME280;62195;55.030;73.278;2022-10-16T05:44:59;100706.38;;;12.63;57.42
73858;BME280;62195;55.030;73.278;2022-10-16T05:47:25;100706.88;;;12.71;57.50
73858;BME280;62195;55.030;73.278;2022-10-16T05:49:51;100697.88;;;12.75;56.84
73858;BME280;62195;55.030;73.278;2022-10-16T05:52:20;100701.78;;;12.86;56.76
73858;BME280;62195;55.030;73.278;2022-10-16T05:54:46;100699.94;;;12.88;57.00
73858;BME280;62195;55.030;73.278;2022-10-16T05:57:24;100704.13;;;12.92;56.52
73858;BME280;62195;55.030;73.278;2022-10-16T06:00:03;100691.25;;;12.86;56.23
73858;BME280;62195;55.030;73.278;2022-10-16T06:02:42;100703.03;;;12.96;55.75
73858;BME280;62195;55.030;73.278;2022-10-16T06:05:08;100701.34;;;12.95;54.95
73858;BME280;62195;55.030;73.278;2022-10-16T06:07:35;100702.81;;;13.01;54.78
73858;BME280;62195;55.030;73.278;2022-10-16T06:10:03;100694.19;;;12.97;55.05
73858;BME280;62195;55.030;73.278;2022-10-16T06:12:29;100702.09;;;12.97;54.56
73858;BME280;62195;55.030;73.278;2022-10-16T06:14:55;100708.31;;;12.96;54.63
73858;BME280;62195;55.030;73.278;2022-10-16T06:17:30;100705.03;;;12.91;54.74
73858;BME280;62195;55.030;73.278;2022-10-16T06:19:57;100689.69;;;12.81;55.50
73858;BME280;62195;55.030;73.278;2022-10-16T06:22:33;100696.69;;;12.82;54.94
73858;BME280;62195;55.030;73.278;2022-10-16T06:25:00;100700.38;;;12.78;55.08
73858;BME280;62195;55.030;73.278;2022-10-16T06:27:26;100690.91;;;12.74;54.72
73858;BME280;62195;55.030;73.278;2022-10-16T06:29:53;100692.53;;;12.77;55.38
73858;BME280;62195;55.030;73.278;2022-10-16T06:32:19;100696.69;;;12.82;55.96
73858;BME280;62195;55.030;73.278;2022-10-16T06:34:49;100687.84;;;12.83;55.94
73858;BME280;62195;55.030;73.278;2022-10-16T06:37:21;100683.28;;;12.87;55.38
73858;BME280;62195;55.030;73.278;2022-10-16T06:39:48;100681.63;;;12.84;55.76
73858;BME280;62195;55.030;73.278;2022-10-16T06:42:15;100675.28;;;12.89;56.04
73858;BME280;62195;55.030;73.278;2022-10-16T06:44:47;100684.59;;;12.96;55.79
73858;BME280;62195;55.030;73.278;2022-10-16T06:47:17;100676.69;;;12.96;56.44
73858;BME280;62195;55.030;73.278;2022-10-16T06:49:47;100660.19;;;12.92;56.40
73858;BME280;62195;55.030;73.278;2022-10-16T06:52:21;100630.31;;;12.74;56.51
73858;BME280;62195;55.030;73.278;2022-10-16T06:54:48;100665.28;;;12.95;56.45
73858;BME280;62195;55.030;73.278;2022-10-16T06:57:15;100653.09;;;12.93;56.57
73858;BME280;62195;55.030;73.278;2022-10-16T06:59:46;100646.94;;;12.94;56.51
73858;BME280;62195;55.030;73.278;2022-10-16T07:02:17;100649.00;;;13.05;56.94
73858;BME280;62195;55.030;73.278;2022-10-16T07:04:44;100646.44;;;13.03;56.51
73858;BME280;62195;55.030;73.278;2022-10-16T07:07:10;100656.53;;;13.13;56.94
73858;BME280;62195;55.030;73.278;2022-10-16T07:09:36;100664.19;;;13.17;57.20
73858;BME280;62195;55.030;73.278;2022-10-16T07:12:03;100659.78;;;13.18;56.63
73858;BME280;62195;55.030;73.278;2022-10-16T07:14:29;100665.59;;;13.07;57.07
73858;BME280;62195;55.030;73.278;2022-10-16T07:16:55;100665.06;;;13.00;57.77
73858;BME280;62195;55.030;73.278;2022-10-16T07:19:22;100659.31;;;12.92;58.16
73858;BME280;62195;55.030;73.278;2022-10-16T07:21:58;100633.59;;;12.79;57.72
73858;BME280;62195;55.030;73.278;2022-10-16T07:24:35;100657.31;;;12.97;58.78
73858;BME280;62195;55.030;73.278;2022-10-16T07:27:01;100627.69;;;12.92;59.82
73858;BME280;62195;55.030;73.278;2022-10-16T07:29:27;100651.41;;;13.09;59.87
73858;BME280;62195;55.030;73.278;2022-10-16T07:31:54;100638.72;;;13.18;60.21
73858;BME280;62195;55.030;73.278;2022-10-16T07:34:20;100639.44;;;13.37;59.67
73858;BME280;62195;55.030;73.278;2022-10-16T07:36:49;100642.41;;;13.49;58.54
73858;BME280;62195;55.030;73.278;2022-10-16T07:39:17;100629.94;;;13.53;58.52
73858;BME280;62195;55.030;73.278;2022-10-16T07:41:44;100619.13;;;13.57;57.86
73858;BME280;62195;55.030;73.278;2022-10-16T07:44:10;100609.06;;;13.48;58.09
73858;BME280;62195;55.030;73.278;2022-10-16T07:46:37;100598.34;;;13.51;58.46
73858;BME280;62195;55.030;73.278;2022-10-16T07:49:03;100578.03;;;13.35;58.23
73858;BME280;62195;55.030;73.278;2022-10-16T07:51:30;100598.19;;;13.54;58.06
73858;BME280;62195;55.030;73.278;2022-10-16T07:53:56;100597.84;;;13.60;58.55
73858;BME280;62195;55.030;73.278;2022-10-16T07:56:23;100601.09;;;13.66;58.42
73858;BME280;62195;55.030;73.278;2022-10-16T07:58:49;100600.94;;;13.69;58.05
73858;BME280;62195;55.030;73.278;2022-10-16T08:01:17;100587.28;;;13.60;58.27
73858;BME280;62195;55.030;73.278;2022-10-16T08:03:46;100596.59;;;13.68;58.37
73858;BME280;62195;55.030;73.278;2022-10-16T08:06:12;100596.88;;;13.79;57.60
73858;BME280;62195;55.030;73.278;2022-10-16T08:08:38;100607.69;;;13.90;58.16
73858;BME280;62195;55.030;73.278;2022-10-16T08:11:05;100601.81;;;14.01;57.79
73858;BME280;62195;55.030;73.278;2022-10-16T08:13:31;100600.97;;;14.01;57.56
73858;BME280;62195;55.030;73.278;2022-10-16T08:15:58;100599.25;;;14.00;57.77
73858;BME280;62195;55.030;73.278;2022-10-16T08:18:24;100607.75;;;14.05;57.81
73858;BME280;62195;55.030;73.278;2022-10-16T08:20:59;100606.56;;;13.95;58.37
73858;BME280;62195;55.030;73.278;2022-10-16T08:23:27;100603.84;;;13.80;58.67
73858;BME280;62195;55.030;73.278;2022-10-16T08:25:54;100609.28;;;13.77;59.26
73858;BME280;62195;55.030;73.278;2022-10-16T08:28:22;100609.28;;;13.77;60.30
73858;BME280;62195;55.030;73.278;2022-10-16T08:30:48;100590.38;;;13.69;59.08
73858;BME280;62195;55.030;73.278;2022-10-16T08:33:15;100604.69;;;13.81;59.22
73858;BME280;62195;55.030;73.278;2022-10-16T08:35:50;100601.28;;;13.78;59.11
73858;BME280;62195;55.030;73.278;2022-10-16T08:38:16;100609.13;;;13.80;59.27
73858;BME280;62195;55.030;73.278;2022-10-16T08:40:44;100539.84;;;13.43;59.40
73858;BME280;62195;55.030;73.278;2022-10-16T08:48:58;100593.69;;;13.56;59.48
73858;BME280;62195;55.030;73.278;2022-10-16T08:51:32;100593.38;;;13.45;60.17
73858;BME280;62195;55.030;73.278;2022-10-16T08:54:03;100587.03;;;13.31;60.19
73858;BME280;62195;55.030;73.278;2022-10-16T08:56:30;100594.00;;;13.32;60.01
73858;BME280;62195;55.030;73.278;2022-10-16T08:58:58;100592.50;;;13.28;60.71
73858;BME280;62195;55.030;73.278;2022-10-16T09:01:41;100584.59;;;13.10;60.44
73858;BME280;62195;55.030;73.278;2022-10-16T09:06:58;100593.28;;;13.13;60.84
73858;BME280;62195;55.030;73.278;2022-10-16T09:15:03;100586.66;;;13.21;61.43
73858;BME280;62195;55.030;73.278;2022-10-16T09:18:00;100589.06;;;13.26;60.71
73858;BME280;62195;55.030;73.278;2022-10-16T09:23:25;100587.25;;;13.44;60.50
73858;BME280;62195;55.030;73.278;2022-10-16T09:25:52;100587.03;;;13.49;60.63
73858;BME280;62195;55.030;73.278;2022-10-16T09:28:30;100582.16;;;13.41;60.76
73858;BME280;62195;55.030;73.278;2022-10-16T09:30:56;100594.00;;;13.32;61.13
73858;BME280;62195;55.030;73.278;2022-10-16T09:33:33;100589.06;;;13.26;61.61
73858;BME280;62195;55.030;73.278;2022-10-16T09:35:59;100589.25;;;13.23;61.51
73858;BME280;62195;55.030;73.278;2022-10-16T09:38:33;100586.81;;;13.18;62.27
73858;BME280;62195;55.030;73.278;2022-10-16T09:41:22;100581.50;;;13.02;62.07
73858;BME280;62195;55.030;73.278;2022-10-16T09:43:57;100579.03;;;12.99;62.56
73858;BME280;62195;55.030;73.278;2022-10-16T09:48:56;100585.09;;;12.83;63.48
73858;BME280;62195;55.030;73.278;2022-10-16T09:51:36;100522.41;;;12.37;63.66
73858;BME280;62195;55.030;73.278;2022-10-16T09:54:17;100580.66;;;12.66;64.15
73858;BME280;62195;55.030;73.278;2022-10-16T09:56:43;100575.56;;;12.63;64.46
73858;BME280;62195;55.030;73.278;2022-10-16T09:59:16;100561.22;;;12.51;64.46
73858;BME280;62195;55.030;73.278;2022-10-16T10:01:49;100561.22;;;12.51;64.36
73858;BME280;62195;55.030;73.278;2022-10-16T10:04:21;100574.69;;;12.63;64.67
73858;BME280;62195;55.030;73.278;2022-10-16T10:06:50;100570.75;;;12.71;65.11
73858;BME280;62195;55.030;73.278;2022-10-16T10:09:21;100574.53;;;12.83;65.49
73858;BME280;62195;55.030;73.278;2022-10-16T10:11:57;100577.94;;;12.86;66.38
73858;BME280;62195;55.030;73.278;2022-10-16T10:19:39;100569.72;;;12.56;67.56
73858;BME280;62195;55.030;73.278;2022-10-16T10:22:32;100577.63;;;12.39;67.98
73858;BME280;62195;55.030;73.278;2022-10-16T10:30:59;100571.44;;;12.21;68.29
73858;BME280;62195;55.030;73.278;2022-10-16T10:36:32;100574.44;;;12.13;67.93
73858;BME280;62195;55.030;73.278;2022-10-16T10:39:04;100563.28;;;12.08;66.20
73858;BME280;62195;55.030;73.278;2022-10-16T10:42:17;100563.84;;;11.95;66.32
73858;BME280;62195;55.030;73.278;2022-10-16T10:51:01;100553.50;;;11.73;66.75
73858;BME280;62195;55.030;73.278;2022-10-16T10:54:10;100552.91;;;11.66;67.62
73858;BME280;62195;55.030;73.278;2022-10-16T10:57:35;100558.09;;;11.68;67.88
73858;BME280;62195;55.030;73.278;2022-10-16T11:00:08;100559.88;;;11.67;68.30
73858;BME280;62195;55.030;73.278;2022-10-16T11:02:57;100544.25;;;11.64;68.29
73858;BME280;62195;55.030;73.278;2022-10-16T11:05:51;100553.06;;;11.63;67.76
73858;BME280;62195;55.030;73.278;2022-10-16T11:08:38;100543.38;;;11.63;68.21
73858;BME280;62195;55.030;73.278;2022-10-16T11:11:32;100540.81;;;11.62;68.38
73858;BME280;62195;55.030;73.278;2022-10-16T11:16:53;100540.47;;;11.50;68.25
73858;BME280;62195;55.030;73.278;2022-10-16T11:19:45;100539.06;;;11.43;69.07
73858;BME280;62195;55.030;73.278;2022-10-16T11:25:49;100534.13;;;11.35;69.77
73858;BME280;62195;55.030;73.278;2022-10-16T11:30:28;100535.00;;;11.36;70.28
73858;BME280;62195;55.030;73.278;2022-10-16T11:40:53;100524.78;;;11.30;70.52
73858;BME280;62195;55.030;73.278;2022-10-16T11:43:38;100529.38;;;11.24;70.69
73858;BME280;62195;55.030;73.278;2022-10-16T11:46:17;100528.66;;;11.21;70.55
73858;BME280;62195;55.030;73.278;2022-10-16T11:48:57;100523.47;;;11.19;70.71
73858;BME280;62195;55.030;73.278;2022-10-16T11:51:38;100516.56;;;11.17;70.29
73858;BME280;62195;55.030;73.278;2022-10-16T11:57:17;100502.06;;;11.08;70.54
73858;BME280;62195;55.030;73.278;2022-10-16T11:59:53;100510.59;;;11.13;71.26
73858;BME280;62195;55.030;73.278;2022-10-16T12:05:27;100504.50;;;10.92;71.11
73858;BME280;62195;55.030;73.278;2022-10-16T12:08:10;100509.31;;;11.03;72.00
73858;BME280;62195;55.030;73.278;2022-10-16T12:10:48;100507.59;;;11.02;71.34
73858;BME280;62195;55.030;73.278;2022-10-16T12:13:34;100503.28;;;11.01;71.44
73858;BME280;62195;55.030;73.278;2022-10-16T12:16:21;100503.41;;;10.97;70.86
73858;BME280;62195;55.030;73.278;2022-10-16T12:18:49;100495.31;;;11.02;71.45
73858;BME280;62195;55.030;73.278;2022-10-16T12:21:31;100494.47;;;11.02;71.61
73858;BME280;62195;55.030;73.278;2022-10-16T12:24:00;100494.31;;;11.05;70.96
73858;BME280;62195;55.030;73.278;2022-10-16T12:26:32;100487.25;;;11.07;70.87
73858;BME280;62195;55.030;73.278;2022-10-16T12:32:01;100484.25;;;10.95;71.29
73858;BME280;62195;55.030;73.278;2022-10-16T12:34:36;100494.31;;;11.05;70.48
73858;BME280;62195;55.030;73.278;2022-10-16T12:37:18;100488.41;;;11.00;70.49
73858;BME280;62195;55.030;73.278;2022-10-16T12:39:48;100492.63;;;11.04;70.73
73858;BME280;62195;55.030;73.278;2022-10-16T12:44:59;100488.56;;;10.96;70.10
73858;BME280;62195;55.030;73.278;2022-10-16T12:49:58;100492.13;;;10.95;71.19
73858;BME280;62195;55.030;73.278;2022-10-16T12:55:17;100500.84;;;10.96;70.58
73858;BME280;62195;55.030;73.278;2022-10-16T13:14:43;100492.19;;;10.94;71.44
73858;BME280;62195;55.030;73.278;2022-10-16T13:20:06;100492.13;;;10.95;71.21
73858;BME280;62195;55.030;73.278;2022-10-16T13:28:06;100484.38;;;10.92;70.65
73858;BME280;62195;55.030;73.278;2022-10-16T13:30:42;100479.38;;;10.86;70.96
73858;BME280;62195;55.030;73.278;2022-10-16T13:33:21;100485.50;;;10.87;70.87
73858;BME280;62195;55.030;73.278;2022-10-16T13:35:55;100487.25;;;10.86;71.28
73858;BME280;62195;55.030;73.278;2022-10-16T13:38:25;100491.59;;;10.87;71.85
73858;BME280;62195;55.030;73.278;2022-10-16T13:40:58;100492.44;;;10.88;71.93
73858;BME280;62195;55.030;73.278;2022-10-16T13:43:32;100496.13;;;10.83;72.38
73858;BME280;62195;55.030;73.278;2022-10-16T13:46:06;100494.53;;;10.79;72.32
73858;BME280;62195;55.030;73.278;2022-10-16T13:48:34;100478.22;;;10.73;72.13
73858;BME280;62195;55.030;73.278;2022-10-16T13:51:06;100489.56;;;10.73;73.07
73858;BME280;62195;55.030;73.278;2022-10-16T13:53:34;100481.28;;;10.62;72.47
73858;BME280;62195;55.030;73.278;2022-10-16T13:56:06;100488.41;;;10.37;73.10
73858;BME280;62195;55.030;73.278;2022-10-16T13:58:33;100483.03;;;10.40;73.64
73858;BME280;62195;55.030;73.278;2022-10-16T14:01:16;100478.06;;;10.34;72.78
73858;BME280;62195;55.030;73.278;2022-10-16T14:04:10;100480.72;;;10.33;74.16
73858;BME280;62195;55.030;73.278;2022-10-16T14:06:41;100485.25;;;10.29;74.05
73858;BME280;62195;55.030;73.278;2022-10-16T14:09:14;100490.25;;;10.35;74.37
73858;BME280;62195;55.030;73.278;2022-10-16T14:12:08;100484.22;;;10.33;73.55
73858;BME280;62195;55.030;73.278;2022-10-16T14:14:40;100482.31;;;10.37;74.03
73858;BME280;62195;55.030;73.278;2022-10-16T14:17:31;100484.28;;;10.32;73.43
73858;BME280;62195;55.030;73.278;2022-10-16T14:20:01;100485.00;;;10.35;74.21
73858;BME280;62195;55.030;73.278;2022-10-16T14:22:36;100483.28;;;10.34;74.94
73858;BME280;62195;55.030;73.278;2022-10-16T14:25:20;100477.59;;;10.24;74.80
73858;BME280;62195;55.030;73.278;2022-10-16T14:27:59;100475.84;;;10.23;75.17
73858;BME280;62195;55.030;73.278;2022-10-16T14:30:27;100475.28;;;10.16;75.20
73858;BME280;62195;55.030;73.278;2022-10-16T14:33:37;100475.84;;;10.02;74.09
73858;BME280;62195;55.030;73.278;2022-10-16T14:36:11;100476.97;;;9.95;75.87
73858;BME280;62195;55.030;73.278;2022-10-16T14:38:39;100469.66;;;9.81;75.06
73858;BME280;62195;55.030;73.278;2022-10-16T14:41:06;100481.13;;;9.79;75.25
73858;BME280;62195;55.030;73.278;2022-10-16T14:43:43;100473.66;;;9.69;75.51
73858;BME280;62195;55.030;73.278;2022-10-16T14:47:16;100479.41;;;9.55;76.75
73858;BME280;62195;55.030;73.278;2022-10-16T14:49:51;100467.59;;;9.45;76.41
73858;BME280;62195;55.030;73.278;2022-10-16T14:52:17;100474.72;;;9.41;76.32
73858;BME280;62195;55.030;73.278;2022-10-16T14:54:48;100468.06;;;9.32;77.55
73858;BME280;62195;55.030;73.278;2022-10-16T14:57:27;100468.06;;;9.32;76.74
73858;BME280;62195;55.030;73.278;2022-10-16T14:59:56;100466.34;;;9.31;77.31
73858;BME280;62195;55.030;73.278;2022-10-16T15:02:32;100467.25;;;9.30;77.82